createdAt,value
2022-10-23T00:02:12.829Z,3.10
2022-10-23T00:04:41.932Z,4.73
2022-10-23T00:07:09.660Z,9.82
2022-10-23T00:09:37.327Z,9.63
2022-10-23T00:12:05.336Z,6.97
2022-10-23T00:14:33.305Z,5.95
2022-10-23T00:17:01.002Z,9.93
2022-10-23T00:19:28.831Z,8.65
2022-10-23T00:21:57.872Z,7.93
2022-10-23T00:24:25.572Z,9.05
2022-10-23T00:26:53.288Z,10.38
2022-10-23T00:29:20.976Z,8.70
2022-10-23T00:31:48.767Z,4.45
2022-10-23T00:34:16.504Z,6.72
2022-10-23T00:36:44.176Z,9.32
2022-10-23T00:39:13.240Z,7.18
2022-10-23T00:41:41.044Z,8.17
2022-10-23T00:44:10.946Z,8.95
2022-10-23T00:46:40.413Z,8.02
2022-10-23T00:49:08.976Z,7.55
2022-10-23T00:51:40.313Z,7.38
2022-10-23T00:54:25.056Z,7.70
2022-10-23T00:56:57.287Z,6.57
2022-10-23T00:59:25.585Z,9.05
2022-10-23T01:01:53.361Z,5.88
2022-10-23T01:04:21.886Z,5.70
2022-10-23T01:06:58.782Z,8.30
2022-10-23T01:09:33.219Z,5.25
2022-10-23T01:12:09.704Z,6.63
2022-10-23T01:14:44.893Z,7.78
2022-10-23T01:17:20.852Z,7.15
2022-10-23T01:20:02.383Z,9.07
2022-10-23T01:22:53.837Z,7.22
2022-10-23T01:25:30.590Z,8.48
2022-10-23T01:28:04.231Z,7.55
2022-10-23T01:30:34.616Z,5.18
2022-10-23T01:33:07.806Z,8.00
2022-10-23T01:35:38.907Z,7.60
2022-10-23T01:38:13.869Z,4.68
2022-10-23T01:40:49.359Z,6.63
2022-10-23T01:43:22.923Z,10.82
2022-10-23T01:45:54.248Z,9.77
2022-10-23T01:48:27.037Z,6.43
2022-10-23T01:50:58.980Z,6.82
2022-10-23T01:53:30.673Z,6.60
2022-10-23T01:56:00.658Z,10.13
2022-10-23T01:58:32.581Z,6.80
2022-10-23T02:01:04.483Z,10.90
2022-10-23T02:03:35.471Z,8.15
2022-10-23T02:06:03.226Z,5.85
2022-10-23T02:08:31.843Z,10.48
2022-10-23T02:11:04.376Z,8.00
2022-10-23T02:13:38.909Z,6.53
2022-10-23T02:16:17.052Z,8.23
2022-10-23T02:18:51.194Z,12.55
2022-10-23T02:21:23.122Z,10.27
2022-10-23T02:23:56.258Z,9.80
2022-10-23T02:26:30.401Z,10.23
2022-10-23T02:31:38.875Z,7.88
2022-10-23T02:34:06.782Z,8.70
2022-10-23T02:36:34.523Z,11.67
2022-10-23T02:39:02.276Z,12.40
2022-10-23T02:41:39.096Z,9.00
2022-10-23T02:44:22.524Z,9.60
2022-10-23T02:46:54.608Z,12.63
2022-10-23T02:49:28.696Z,11.33
2022-10-23T02:52:05.866Z,9.02
2022-10-23T02:54:47.125Z,12.07
2022-10-23T02:57:23.700Z,14.25
2022-10-23T03:00:01.660Z,11.23
2022-10-23T03:02:36.546Z,11.27
2022-10-23T03:05:07.207Z,8.35
2022-10-23T03:07:35.509Z,12.27
2022-10-23T03:10:03.321Z,12.52
2022-10-23T03:12:31.087Z,11.23
2022-10-23T03:15:00.146Z,13.67
2022-10-23T03:17:28.378Z,12.13
2022-10-23T03:19:56.229Z,12.52
2022-10-23T03:22:24.474Z,14.20
2022-10-23T03:24:52.198Z,8.27
2022-10-23T03:27:19.949Z,12.20
2022-10-23T03:29:47.629Z,9.27
2022-10-23T03:32:16.721Z,11.65
2022-10-23T03:34:44.556Z,13.95
2022-10-23T03:37:12.237Z,15.35
2022-10-23T03:39:39.936Z,14.80
2022-10-23T03:42:07.637Z,15.73
2022-10-23T03:44:35.348Z,10.73
2022-10-23T03:47:03.090Z,10.75
2022-10-23T03:49:32.555Z,13.15
2022-10-23T03:52:00.211Z,14.80
2022-10-23T03:54:29.806Z,12.43
2022-10-23T03:56:58.265Z,16.23
2022-10-23T03:59:26.037Z,13.15
2022-10-23T04:01:53.864Z,14.93
2022-10-23T04:04:21.628Z,12.00
2022-10-23T04:06:50.766Z,10.63
2022-10-23T04:09:18.770Z,15.15
2022-10-23T04:11:46.550Z,14.80
2022-10-23T04:14:14.941Z,16.73
2022-10-23T04:16:42.687Z,13.03
2022-10-23T04:19:10.633Z,13.43
2022-10-23T04:21:38.513Z,11.38
2022-10-23T04:24:08.238Z,12.88
2022-10-23T04:26:36.028Z,11.73
2022-10-23T04:29:03.774Z,10.93
2022-10-23T04:31:31.486Z,12.38
2022-10-23T04:33:59.225Z,11.20
2022-10-23T04:36:26.990Z,14.38
2022-10-23T04:38:54.685Z,17.70
2022-10-23T04:41:23.897Z,10.13
2022-10-23T04:43:51.582Z,12.27
2022-10-23T04:46:19.279Z,10.23
2022-10-23T04:48:46.970Z,11.07
2022-10-23T04:51:14.674Z,11.52
2022-10-23T04:53:42.343Z,13.00
2022-10-23T04:56:14.889Z,16.50
2022-10-23T04:58:44.034Z,12.30
2022-10-23T05:01:12.214Z,12.25
2022-10-23T05:03:40.454Z,12.60
2022-10-23T05:06:08.341Z,15.77
2022-10-23T05:08:36.552Z,12.02
2022-10-23T05:11:04.765Z,13.40
2022-10-23T05:13:32.448Z,10.40
2022-10-23T05:16:01.551Z,16.50
2022-10-23T05:18:35.729Z,14.13
2022-10-23T05:21:07.565Z,15.82
2022-10-23T05:23:38.437Z,9.63
2022-10-23T05:26:06.333Z,16.90
2022-10-23T05:28:34.002Z,16.65
2022-10-23T05:31:06.027Z,13.83
2022-10-23T05:33:35.685Z,18.25
2022-10-23T05:36:04.057Z,13.95
2022-10-23T05:38:36.000Z,15.48
2022-10-23T05:41:03.806Z,14.48
2022-10-23T05:43:31.519Z,14.27
2022-10-23T05:45:59.860Z,14.27
2022-10-23T05:48:35.993Z,16.85
2022-10-23T05:51:05.313Z,16.02
2022-10-23T05:53:33.308Z,14.63
2022-10-23T05:56:05.701Z,14.70
2022-10-23T05:58:34.452Z,13.85
2022-10-23T06:01:06.311Z,16.75
2022-10-23T06:03:35.439Z,18.95
2022-10-23T06:06:03.202Z,12.98
2022-10-23T06:08:31.636Z,20.87
2022-10-23T06:10:59.409Z,12.77
2022-10-23T06:13:27.162Z,14.43
2022-10-23T06:15:54.834Z,15.07
2022-10-23T06:18:22.580Z,13.90
2022-10-23T06:20:51.614Z,11.90
2022-10-23T06:23:19.311Z,16.08
2022-10-23T06:25:53.560Z,12.43
2022-10-23T06:28:21.238Z,32.20
2022-10-23T06:30:48.984Z,11.10
2022-10-23T06:33:16.672Z,13.40
2022-10-23T06:35:44.485Z,13.75
2022-10-23T06:38:13.728Z,14.25
2022-10-23T06:40:41.466Z,12.95
2022-10-23T06:43:09.521Z,14.88
2022-10-23T06:45:37.238Z,14.53
2022-10-23T06:48:05.377Z,13.45
2022-10-23T06:50:33.085Z,14.25
2022-10-23T06:53:00.845Z,18.17
2022-10-23T06:55:31.122Z,11.52
2022-10-23T06:57:58.855Z,20.80
2022-10-23T07:00:26.940Z,26.58
2022-10-23T07:02:54.764Z,12.48
2022-10-23T07:05:22.531Z,20.10
2022-10-23T07:07:50.222Z,23.73
2022-10-23T07:10:18.173Z,13.93
2022-10-23T07:12:47.763Z,14.50
2022-10-23T07:15:15.648Z,10.00
2022-10-23T07:17:43.369Z,12.20
2022-10-23T07:20:11.056Z,17.42
2022-10-23T07:22:38.842Z,10.30
2022-10-23T07:25:07.613Z,10.52
2022-10-23T07:27:37.607Z,11.55
2022-10-23T07:30:07.838Z,10.15
2022-10-23T07:32:35.490Z,9.07
2022-10-23T07:35:03.220Z,11.00
2022-10-23T07:37:31.367Z,14.15
2022-10-23T07:39:59.032Z,8.38
2022-10-23T07:42:26.804Z,11.18
2022-10-23T07:44:54.475Z,9.35
2022-10-23T07:47:23.544Z,10.93
2022-10-23T07:49:51.223Z,9.43
2022-10-23T07:52:18.965Z,9.57
2022-10-23T07:54:46.647Z,10.60
2022-10-23T07:57:14.328Z,15.88
2022-10-23T07:59:42.000Z,18.70
2022-10-23T08:02:12.608Z,9.07
2022-10-23T08:04:41.942Z,9.05
2022-10-23T08:07:09.609Z,14.00
2022-10-23T08:09:38.101Z,9.20
2022-10-23T08:12:06.203Z,11.63
2022-10-23T08:14:33.888Z,9.63
2022-10-23T08:19:30.192Z,15.80
2022-10-23T08:21:59.204Z,10.20
2022-10-23T08:24:26.885Z,11.63
2022-10-23T08:26:54.571Z,12.68
2022-10-23T08:29:22.439Z,11.82
2022-10-23T08:31:50.147Z,12.43
2022-10-23T08:34:18.870Z,11.70
2022-10-23T08:36:46.609Z,10.30
2022-10-23T08:39:15.683Z,11.90
2022-10-23T08:41:45.038Z,12.32
2022-10-23T08:44:22.402Z,10.88
2022-10-23T08:46:58.809Z,13.27
2022-10-23T08:49:37.395Z,9.23
2022-10-23T08:52:16.375Z,12.90
2022-10-23T08:55:01.187Z,12.15
2022-10-23T08:57:38.749Z,13.05
2022-10-23T09:00:13.504Z,9.70
2022-10-23T09:02:44.682Z,10.33
2022-10-23T09:05:16.796Z,10.43
2022-10-23T09:08:00.397Z,11.00
2022-10-23T09:10:51.461Z,11.05
2022-10-23T09:13:51.366Z,10.82
2022-10-23T09:16:32.021Z,9.23
2022-10-23T09:19:00.188Z,10.80
2022-10-23T09:21:29.834Z,11.85
2022-10-23T09:23:57.700Z,12.80
2022-10-23T09:29:36.016Z,10.70
2022-10-23T09:32:06.642Z,10.43
2022-10-23T09:34:35.585Z,11.57
2022-10-23T09:37:06.140Z,11.63
2022-10-23T09:39:36.114Z,10.82
2022-10-23T09:42:22.890Z,10.20
2022-10-23T09:44:52.694Z,11.52
2022-10-23T09:47:22.703Z,10.63
2022-10-23T09:49:52.171Z,10.68
2022-10-23T09:52:26.996Z,25.92
2022-10-23T09:54:56.926Z,16.60
2022-10-23T09:57:31.199Z,28.40
2022-10-23T10:00:03.259Z,17.85
2022-10-23T10:02:33.769Z,10.68
2022-10-23T10:05:01.544Z,12.52
2022-10-23T10:07:33.478Z,13.20
2022-10-23T10:10:03.763Z,11.65
2022-10-23T10:12:50.740Z,12.50
2022-10-23T10:15:23.615Z,12.02
2022-10-23T10:18:02.529Z,11.88
2022-10-23T10:21:00.760Z,12.07
2022-10-23T10:23:36.394Z,11.88
2022-10-23T10:26:15.189Z,10.98
2022-10-23T10:29:00.157Z,12.77
2022-10-23T10:31:36.926Z,11.48
2022-10-23T10:34:14.205Z,9.67
2022-10-23T10:36:51.883Z,12.02
2022-10-23T10:39:28.745Z,12.48
2022-10-23T10:42:14.033Z,11.00
2022-10-23T10:45:14.539Z,11.40
2022-10-23T10:47:51.737Z,10.47
2022-10-23T10:50:38.890Z,10.38
2022-10-23T10:53:18.744Z,11.90
2022-10-23T10:55:51.957Z,10.30
2022-10-23T10:58:26.077Z,12.50
2022-10-23T11:00:59.365Z,10.80
2022-10-23T11:03:37.639Z,9.35
2022-10-23T11:06:14.276Z,8.88
2022-10-23T11:09:19.315Z,10.75
2022-10-23T11:11:47.325Z,10.63
2022-10-23T11:14:17.690Z,10.10
2022-10-23T11:16:50.839Z,9.63
2022-10-23T11:19:24.427Z,10.65
2022-10-23T11:21:57.967Z,7.15
2022-10-23T11:24:58.255Z,7.38
2022-10-23T11:27:37.868Z,7.27
2022-10-23T11:30:18.600Z,8.07
2022-10-23T11:33:03.630Z,7.22
2022-10-23T11:36:00.416Z,10.25
2022-10-23T11:38:31.075Z,9.48
2022-10-23T11:41:02.681Z,8.90
2022-10-23T11:43:33.438Z,9.15
2022-10-23T11:46:12.894Z,8.82
2022-10-23T11:48:43.583Z,9.45
2022-10-23T11:51:32.058Z,8.38
2022-10-23T11:54:26.090Z,7.60
2022-10-23T11:56:57.828Z,8.63
2022-10-23T11:59:30.428Z,8.05
2022-10-23T12:02:00.666Z,8.18
2022-10-23T12:04:44.080Z,7.53
2022-10-23T12:07:24.930Z,7.90
2022-10-23T12:09:58.378Z,8.23
2022-10-23T12:12:34.005Z,6.15
2022-10-23T12:15:20.942Z,9.60
2022-10-23T12:17:49.926Z,7.28
2022-10-23T12:20:27.623Z,9.37
2022-10-23T12:23:13.804Z,6.43
2022-10-23T12:25:56.382Z,9.30
2022-10-23T12:28:35.303Z,9.15
2022-10-23T12:31:17.243Z,10.77
2022-10-23T12:33:51.461Z,8.37
2022-10-23T12:36:36.065Z,10.70
2022-10-23T12:39:03.819Z,6.72
2022-10-23T12:41:34.814Z,8.52
2022-10-23T12:44:05.116Z,7.03
2022-10-23T12:46:37.996Z,8.00
2022-10-23T12:49:15.237Z,6.90
2022-10-23T12:51:44.870Z,6.15
2022-10-23T12:54:18.677Z,8.55
2022-10-23T12:56:46.632Z,8.88
2022-10-23T12:59:20.741Z,12.63
2022-10-23T13:01:52.608Z,9.40
2022-10-23T13:04:27.814Z,8.40
2022-10-23T13:06:58.915Z,9.50
2022-10-23T13:09:30.818Z,9.32
2022-10-23T13:11:59.943Z,8.13
2022-10-23T13:14:32.523Z,10.02
2022-10-23T13:17:01.653Z,9.77
2022-10-23T13:19:29.420Z,9.13
2022-10-23T13:21:59.738Z,10.13
2022-10-23T13:24:29.587Z,8.87
2022-10-23T13:26:58.311Z,11.15
2022-10-23T13:29:30.133Z,8.88
2022-10-23T13:31:58.361Z,7.65
2022-10-23T13:34:28.411Z,9.13
2022-10-23T13:37:04.305Z,9.90
2022-10-23T13:39:33.724Z,9.30
2022-10-23T13:42:11.740Z,7.47
2022-10-23T13:44:39.975Z,9.15
2022-10-23T13:47:11.493Z,11.50
2022-10-23T13:49:39.232Z,11.07
2022-10-23T13:52:12.166Z,8.23
2022-10-23T13:54:39.874Z,7.93
2022-10-23T13:57:13.969Z,7.72
2022-10-23T13:59:41.840Z,9.32
2022-10-23T14:02:18.947Z,8.40
2022-10-23T14:04:47.258Z,9.65
2022-10-23T14:07:16.411Z,9.88
2022-10-23T14:09:44.406Z,10.60
2022-10-23T14:12:13.575Z,12.55
2022-10-23T14:14:41.451Z,9.83
2022-10-23T14:17:09.178Z,9.50
2022-10-23T14:22:09.459Z,11.55
2022-10-23T14:24:38.572Z,12.70
2022-10-23T14:27:06.322Z,10.90
2022-10-23T14:29:34.090Z,10.93
2022-10-23T14:32:01.750Z,12.73
2022-10-23T14:34:29.451Z,12.13
2022-10-23T14:37:07.958Z,13.48
2022-10-23T14:39:38.135Z,15.67
2022-10-23T14:42:05.878Z,14.02
2022-10-23T14:44:33.626Z,13.90
2022-10-23T14:47:03.043Z,14.48
2022-10-23T14:49:31.482Z,13.38
2022-10-23T14:51:59.279Z,15.40
2022-10-23T14:54:28.230Z,14.43
2022-10-23T14:57:05.221Z,16.23
2022-10-23T14:59:33.011Z,15.40
2022-10-23T15:02:00.747Z,14.50
2022-10-23T15:04:28.591Z,14.07
2022-10-23T15:06:56.314Z,17.52
2022-10-23T15:09:25.218Z,17.35
2022-10-23T15:12:07.151Z,15.15
2022-10-23T15:14:36.416Z,18.00
2022-10-23T15:17:05.155Z,16.97
2022-10-23T15:19:34.997Z,16.98
2022-10-23T15:22:04.115Z,17.55
2022-10-23T15:24:31.826Z,15.18
2022-10-23T15:27:00.289Z,17.95
2022-10-23T15:29:28.097Z,19.23
2022-10-23T15:31:58.749Z,16.67
2022-10-23T15:34:28.847Z,21.10
2022-10-23T15:36:58.169Z,19.42
2022-10-23T15:39:33.666Z,16.13
2022-10-23T15:42:01.642Z,19.30
2022-10-23T15:44:31.125Z,21.67
2022-10-23T15:47:00.720Z,18.13
2022-10-23T15:49:30.399Z,18.55
2022-10-23T15:51:59.622Z,16.80
2022-10-23T15:54:36.860Z,16.23
2022-10-23T15:57:05.243Z,17.85
2022-10-23T15:59:33.406Z,19.17
2022-10-23T16:02:02.783Z,18.98
2022-10-23T16:04:31.197Z,17.70
2022-10-23T16:06:59.082Z,17.43
2022-10-23T16:09:26.794Z,18.13
2022-10-23T16:11:54.549Z,15.95
2022-10-23T16:14:26.611Z,18.92
2022-10-23T16:16:54.318Z,18.60
2022-10-23T16:19:23.436Z,18.97
2022-10-23T16:21:51.362Z,20.88
2022-10-23T16:24:19.428Z,18.42
2022-10-23T16:26:51.772Z,21.42
2022-10-23T16:29:20.923Z,21.85
2022-10-23T16:31:49.063Z,18.87
2022-10-23T16:34:17.509Z,20.42
2022-10-23T16:36:47.154Z,19.75
2022-10-23T16:39:17.304Z,18.55
2022-10-23T16:41:45.037Z,19.33
2022-10-23T16:44:12.832Z,19.83
2022-10-23T16:46:41.090Z,21.48
2022-10-23T16:49:09.537Z,23.75
2022-10-23T16:51:37.434Z,20.83
2022-10-23T16:54:06.980Z,20.05
2022-10-23T16:56:34.724Z,17.50
2022-10-23T16:59:02.841Z,19.13
2022-10-23T17:01:32.994Z,16.58
2022-10-23T17:04:01.427Z,18.85
2022-10-23T17:06:31.195Z,18.88
2022-10-23T17:09:00.137Z,19.73
2022-10-23T17:11:30.788Z,19.98
2022-10-23T17:14:02.944Z,19.10
2022-10-23T17:16:34.448Z,19.08
2022-10-23T17:19:03.141Z,18.50
2022-10-23T17:21:34.275Z,17.60
2022-10-23T17:26:31.882Z,16.83
2022-10-23T17:29:01.314Z,15.50
2022-10-23T17:31:31.564Z,17.70
2022-10-23T17:34:02.206Z,21.57
2022-10-23T17:36:32.107Z,17.27
2022-10-23T17:39:00.514Z,20.90
2022-10-23T17:41:28.707Z,18.25
2022-10-23T17:43:58.711Z,22.58
2022-10-23T17:46:27.108Z,21.73
2022-10-23T17:48:57.217Z,21.75
2022-10-23T17:51:26.803Z,24.25
2022-10-23T17:53:56.322Z,21.90
2022-10-23T17:56:26.093Z,19.60
2022-10-23T17:58:55.733Z,22.50
2022-10-23T18:01:27.297Z,20.92
2022-10-23T18:03:56.334Z,20.55
2022-10-23T18:06:29.556Z,24.30
2022-10-23T18:08:58.090Z,20.83
2022-10-23T18:11:27.931Z,19.83
2022-10-23T18:13:56.301Z,23.20
2022-10-23T18:16:25.775Z,20.13
2022-10-23T18:18:53.961Z,22.48
2022-10-23T18:21:23.931Z,16.83
2022-10-23T18:23:53.009Z,20.90
2022-10-23T18:26:22.737Z,27.60
2022-10-23T18:28:52.200Z,22.77
2022-10-23T18:31:21.052Z,21.83
2022-10-23T18:33:50.185Z,21.92
2022-10-23T18:36:21.963Z,21.87
2022-10-23T18:38:50.866Z,27.45
2022-10-23T18:41:20.199Z,25.45
2022-10-23T18:43:47.939Z,23.48
2022-10-23T18:46:16.631Z,20.77
2022-10-23T18:48:44.528Z,23.10
2022-10-23T18:51:18.497Z,22.25
2022-10-23T18:53:47.645Z,20.42
2022-10-23T18:56:16.017Z,22.13
2022-10-23T18:58:43.727Z,22.83
2022-10-23T19:01:11.773Z,21.23
2022-10-23T19:03:39.600Z,22.83
2022-10-23T19:06:08.189Z,18.80
2022-10-23T19:09:31.457Z,19.17
2022-10-23T19:12:06.082Z,21.38
2022-10-23T19:14:34.227Z,19.97
2022-10-23T19:17:04.929Z,19.17
2022-10-23T19:19:37.056Z,19.70
2022-10-23T19:22:05.794Z,20.83
2022-10-23T19:24:40.533Z,17.77
2022-10-23T19:27:09.313Z,17.90
2022-10-23T19:29:39.473Z,18.42
2022-10-23T19:32:13.706Z,21.05
2022-10-23T19:34:41.504Z,18.60
2022-10-23T19:37:09.343Z,19.15
2022-10-23T19:39:38.477Z,21.33
2022-10-23T19:42:08.606Z,20.00
2022-10-23T19:44:36.636Z,19.70
2022-10-23T19:47:04.586Z,17.48
2022-10-23T19:49:32.640Z,20.08
2022-10-23T19:52:00.323Z,20.10
2022-10-23T19:54:28.062Z,15.05
2022-10-23T19:56:57.245Z,19.38
2022-10-23T19:59:25.173Z,18.20
2022-10-23T20:01:53.005Z,20.10
2022-10-23T20:04:21.696Z,19.80
2022-10-23T20:12:25.555Z,18.08
2022-10-23T20:14:59.855Z,16.80
2022-10-23T20:17:27.814Z,15.00
2022-10-23T20:19:56.505Z,15.07
2022-10-23T20:22:25.157Z,17.23
2022-10-23T20:24:53.267Z,16.27
2022-10-23T20:27:21.040Z,15.60
2022-10-23T20:29:50.292Z,15.70
2022-10-23T20:32:18.086Z,15.30
2022-10-23T20:34:45.945Z,13.85
2022-10-23T20:37:13.752Z,12.25
2022-10-23T20:39:41.486Z,16.50
2022-10-23T20:42:09.234Z,18.70
2022-10-23T20:44:36.929Z,14.82
2022-10-23T20:47:06.126Z,12.35
2022-10-23T20:49:33.891Z,13.95
2022-10-23T20:52:02.805Z,11.02
2022-10-23T20:54:31.763Z,14.87
2022-10-23T20:56:59.860Z,11.77
2022-10-23T20:59:27.577Z,12.45
2022-10-23T21:01:57.243Z,13.02
2022-10-23T21:04:28.520Z,11.23
2022-10-23T21:07:10.021Z,11.77
2022-10-23T21:09:38.465Z,10.75
2022-10-23T21:12:07.422Z,11.30
2022-10-23T21:14:35.425Z,11.05
2022-10-23T21:17:03.136Z,9.38
2022-10-23T21:19:32.178Z,10.00
2022-10-23T21:21:59.876Z,11.30
2022-10-23T21:24:27.534Z,11.20
2022-10-23T21:26:55.299Z,15.30
2022-10-23T21:29:22.975Z,13.38
2022-10-23T21:31:54.950Z,11.13
2022-10-23T21:34:23.194Z,11.70
2022-10-23T21:37:13.103Z,11.68
2022-10-23T21:39:40.267Z,12.00
2022-10-23T21:42:08.056Z,15.18
2022-10-23T21:44:36.109Z,9.20
2022-10-23T21:47:03.876Z,9.55
2022-10-23T21:49:31.689Z,11.55
2022-10-23T21:52:00.806Z,9.43
2022-10-23T21:54:28.553Z,12.10
2022-10-23T21:56:56.259Z,8.93
2022-10-23T21:59:27.657Z,8.35
2022-10-23T22:01:58.174Z,9.23
2022-10-23T22:04:25.930Z,10.43
2022-10-23T22:06:53.834Z,11.63
2022-10-23T22:09:23.474Z,9.17
2022-10-23T22:11:51.625Z,9.00
2022-10-23T22:14:19.953Z,9.52
2022-10-23T22:16:48.221Z,8.93
2022-10-23T22:19:18.013Z,8.88
2022-10-23T22:21:46.586Z,10.63
2022-10-23T22:24:15.006Z,8.60
2022-10-23T22:26:46.370Z,10.93
2022-10-23T22:29:16.510Z,7.90
2022-10-23T22:31:48.807Z,9.70
2022-10-23T22:34:28.700Z,9.10
2022-10-23T22:37:07.719Z,7.93
2022-10-23T22:39:35.411Z,10.15
2022-10-23T22:42:04.917Z,7.75
2022-10-23T22:44:32.654Z,6.65
2022-10-23T22:47:00.337Z,8.00
2022-10-23T22:49:28.037Z,9.40
2022-10-23T22:51:55.832Z,10.23
2022-10-23T22:54:23.513Z,6.82
2022-10-23T22:56:51.244Z,7.72
2022-10-23T22:59:20.316Z,7.57
2022-10-23T23:01:50.176Z,8.35
2022-10-23T23:04:37.175Z,8.02
2022-10-23T23:07:05.395Z,8.65
2022-10-23T23:09:33.128Z,9.02
2022-10-23T23:12:00.815Z,8.47
2022-10-23T23:14:29.855Z,7.85
2022-10-23T23:16:57.538Z,8.40
2022-10-23T23:19:26.580Z,8.20
2022-10-23T23:21:56.731Z,6.88
2022-10-23T23:24:24.507Z,7.53
2022-10-23T23:26:52.436Z,9.15
2022-10-23T23:29:20.353Z,9.73
2022-10-23T23:31:49.468Z,6.32
2022-10-23T23:34:17.121Z,6.15
2022-10-23T23:36:44.834Z,6.47
2022-10-23T23:39:12.790Z,8.55
2022-10-23T23:41:40.450Z,6.47
2022-10-23T23:44:08.496Z,7.13
2022-10-23T23:46:36.261Z,5.70
2022-10-23T23:49:05.389Z,8.10
2022-10-23T23:51:33.045Z,8.73
2022-10-23T23:54:00.735Z,6.68
2022-10-23T23:56:29.094Z,6.40
2022-10-23T23:58:56.793Z,6.38
